Time;durP1;ratioP1;P1;durP2;ratioP2;P2;SDS_P1;SDS_P2;PMS_P1;PMS_P2;Temp;Humidity;BMP_temperature;BMP_pressure;BME280_temperature;BME280_humidity;BME280_pressure;Samples;Min_cycle;Max_cycle;Signal;HPM_P1;HPM_P2
2023/06/23 00:00:20;;;;;;;9.30;6.15;;;20.00;99.90;;;;;;5037848;28;20064;-68
2023/06/23 00:02:46;;;;;;;14.90;6.50;;;20.00;99.90;;;;;;5038056;28;20079;-68
2023/06/23 00:05:12;;;;;;;8.68;6.80;;;20.00;99.90;;;;;;5037404;28;20021;-67
2023/06/23 00:07:39;;;;;;;9.45;6.07;;;20.00;99.90;;;;;;5037727;28;20083;-68
2023/06/23 00:10:05;;;;;;;8.73;5.57;;;20.00;99.90;;;;;;5037610;28;20021;-68
2023/06/23 00:12:36;;;;;;;20.30;6.63;;;20.00;99.90;;;;;;5037883;28;20041;-69
2023/06/23 00:15:07;;;;;;;10.13;6.65;;;19.90;99.90;;;;;;5037300;28;20025;-68
2023/06/23 00:17:33;;;;;;;13.05;6.65;;;19.90;99.90;;;;;;5037431;28;20029;-68
2023/06/23 00:19:59;;;;;;;10.75;6.43;;;19.80;99.90;;;;;;5037150;28;20532;-68
2023/06/23 00:22:27;;;;;;;11.13;6.65;;;19.80;99.90;;;;;;5037600;28;20359;-68
2023/06/23 00:24:53;;;;;;;9.43;6.10;;;19.70;99.90;;;;;;5033167;28;20644;-68
2023/06/23 00:27:19;;;;;;;12.25;7.00;;;19.70;99.90;;;;;;5037189;28;20029;-68
2023/06/23 00:29:45;;;;;;;11.27;7.53;;;19.70;99.90;;;;;;5037203;28;20033;-69
2023/06/23 00:32:11;;;;;;;9.32;7.00;;;19.60;99.90;;;;;;5037278;28;20103;-68
2023/06/23 00:34:37;;;;;;;11.32;6.93;;;19.60;99.90;;;;;;5036985;28;20025;-69
2023/06/23 00:37:03;;;;;;;17.02;6.82;;;19.50;99.90;;;;;;5037156;28;20037;-68
2023/06/23 00:39:29;;;;;;;13.07;7.13;;;19.50;99.90;;;;;;5037251;28;20100;-68
2023/06/23 00:41:54;;;;;;;12.13;7.03;;;19.40;99.90;;;;;;5036957;28;20052;-69
2023/06/23 00:44:20;;;;;;;12.35;7.40;;;19.40;99.90;;;;;;5037098;28;20025;-69
2023/06/23 00:46:46;;;;;;;10.30;6.38;;;19.30;99.90;;;;;;5036019;28;20132;-68
2023/06/23 00:49:15;;;;;;;13.00;7.28;;;19.30;99.90;;;;;;5034807;28;20028;-68
2023/06/23 00:51:41;;;;;;;12.13;7.35;;;19.30;99.90;;;;;;5035809;28;20079;-69
2023/06/23 00:54:07;;;;;;;9.57;7.25;;;19.20;99.90;;;;;;5036903;28;20025;-69
2023/06/23 00:56:34;;;;;;;11.05;6.70;;;19.20;99.90;;;;;;5036716;28;20028;-68
2023/06/23 00:59:00;;;;;;;11.00;6.70;;;19.10;99.90;;;;;;5037033;28;20044;-68
2023/06/23 01:01:25;;;;;;;9.52;6.50;;;19.10;99.90;;;;;;5036694;28;20026;-68
2023/06/23 01:03:51;;;;;;;10.95;6.40;;;19.10;99.90;;;;;;5036318;28;20022;-69
2023/06/23 01:06:55;;;;;;;12.32;7.00;;;19.10;99.90;;;;;;5035356;28;20045;-68
2023/06/23 01:09:47;;;;;;;11.05;7.03;;;19.00;99.90;;;;;;5008558;28;20030;-68
2023/06/23 01:12:48;;;;;;;10.48;7.53;;;19.00;99.90;;;;;;5014682;28;20482;-69
2023/06/23 01:15:27;;;;;;;;;;;19.00;99.90;;;;;;5003933;28;20657;-69
2023/06/23 01:18:13;;;;;;;13.18;7.38;;;18.90;99.90;;;;;;5036695;28;19905;-69
2023/06/23 01:20:41;;;;;;;13.23;7.13;;;18.90;99.90;;;;;;5029391;28;20049;-68
2023/06/23 01:23:45;;;;;;;13.50;8.02;;;18.80;99.90;;;;;;5030010;28;20026;-68
2023/06/23 01:26:26;;;;;;;14.25;7.70;;;18.80;99.90;;;;;;5036429;28;20121;-69
2023/06/23 01:29:08;;;;;;;;;;;18.70;99.90;;;;;;5036665;28;20049;-69
2023/06/23 01:32:00;;;;;;;9.75;7.22;;;18.70;99.90;;;;;;5036326;28;20365;-69
2023/06/23 01:34:39;;;;;;;13.25;7.05;;;18.60;99.90;;;;;;5036086;28;20029;-68
2023/06/23 01:37:18;;;;;;;10.00;7.05;;;18.60;99.90;;;;;;5036348;28;20090;-68
2023/06/23 01:39:50;;;;;;;10.93;6.80;;;18.50;99.90;;;;;;5035149;28;20029;-68
2023/06/23 01:42:18;;;;;;;10.45;7.05;;;18.50;99.90;;;;;;5036354;28;20025;-69
2023/06/23 01:44:51;;;;;;;12.57;7.53;;;18.50;99.90;;;;;;5036315;28;20044;-68
2023/06/23 01:47:21;;;;;;;20.20;7.93;;;18.50;99.90;;;;;;5036248;28;20017;-69
2023/06/23 01:49:48;;;;;;;;;;;18.40;99.90;;;;;;5036642;28;20018;-68
2023/06/23 01:52:16;;;;;;;14.40;6.82;;;18.40;99.90;;;;;;5036160;28;20082;-69
2023/06/23 01:54:42;;;;;;;8.25;6.43;;;18.40;99.90;;;;;;5036410;28;20052;-69
2023/06/23 01:57:12;;;;;;;10.13;7.10;;;18.30;99.90;;;;;;5029886;28;20025;-69
2023/06/23 01:59:38;;;;;;;13.50;7.75;;;18.20;99.90;;;;;;5035475;28;20033;-68
2023/06/23 02:02:06;;;;;;;11.80;7.47;;;18.10;99.90;;;;;;5036491;28;20105;-68
2023/06/23 02:04:34;;;;;;;9.30;7.45;;;18.00;99.90;;;;;;5035767;28;20072;-68
2023/06/23 02:07:00;;;;;;;9.40;7.07;;;17.90;99.90;;;;;;5035479;28;20108;-68
2023/06/23 02:09:28;;;;;;;9.10;7.38;;;17.80;99.90;;;;;;5036392;28;20534;-68
2023/06/23 02:11:57;;;;;;;15.77;7.97;;;17.80;99.90;;;;;;5036183;28;20029;-68
2023/06/23 02:14:24;;;;;;;13.77;8.18;;;17.70;99.90;;;;;;5034526;28;20117;-69
2023/06/23 02:16:51;;;;;;;11.43;8.13;;;17.70;99.90;;;;;;5035904;28;20394;-68
2023/06/23 02:19:19;;;;;;;12.70;8.48;;;17.60;99.90;;;;;;5035619;28;20036;-68
2023/06/23 02:21:45;;;;;;;14.52;7.47;;;17.60;99.90;;;;;;5046684;28;20410;-68
2023/06/23 02:24:13;;;;;;;14.27;8.50;;;17.60;99.90;;;;;;5035011;28;20025;-68
2023/06/23 02:26:40;;;;;;;16.92;8.30;;;17.50;99.90;;;;;;5039765;28;20397;-68
2023/06/23 02:29:07;;;;;;;10.82;8.48;;;17.60;99.90;;;;;;5037491;28;20160;-68
2023/06/23 02:31:33;;;;;;;13.50;8.75;;;17.60;99.90;;;;;;5039928;28;20113;-68
2023/06/23 02:33:59;;;;;;;15.73;8.50;;;17.60;99.90;;;;;;5039276;28;20437;-68
2023/06/23 02:36:34;;;;;;;19.70;9.35;;;17.60;99.90;;;;;;5039480;28;20393;-68
2023/06/23 02:39:04;;;;;;;16.08;9.32;;;17.60;99.90;;;;;;5039390;28;20033;-68
2023/06/23 02:41:32;;;;;;;;;;;17.60;99.90;;;;;;5039770;28;20557;-68
2023/06/23 02:44:01;;;;;;;11.25;8.25;;;17.60;99.90;;;;;;5039184;28;19905;-68
2023/06/23 02:46:33;;;;;;;15.65;8.75;;;17.70;99.90;;;;;;5039361;28;20017;-68
2023/06/23 02:49:06;;;;;;;12.50;8.50;;;17.70;99.90;;;;;;5038897;28;20562;-68
2023/06/23 02:51:35;;;;;;;16.08;9.13;;;17.70;99.90;;;;;;5039345;28;20033;-68
2023/06/23 02:54:11;;;;;;;13.02;8.80;;;17.60;99.90;;;;;;5033704;28;20775;-68
2023/06/23 02:56:43;;;;;;;17.08;8.50;;;17.60;99.90;;;;;;5038536;28;20497;-68
2023/06/23 02:59:13;;;;;;;15.57;9.40;;;17.60;99.90;;;;;;5039239;28;20028;-68
2023/06/23 03:01:40;;;;;;;;;;;17.60;99.90;;;;;;5034476;28;20092;-68
2023/06/23 03:04:06;;;;;;;12.88;8.02;;;17.60;99.90;;;;;;5037962;28;19952;-68
2023/06/23 03:06:36;;;;;;;12.48;8.55;;;17.60;99.90;;;;;;5037810;28;20045;-68
2023/06/23 03:09:03;;;;;;;17.05;8.73;;;17.50;99.90;;;;;;5038988;28;20116;-68
2023/06/23 03:11:36;;;;;;;13.60;7.78;;;17.60;99.90;;;;;;5038877;28;20439;-68
2023/06/23 03:14:02;;;;;;;14.38;8.60;;;17.60;99.90;;;;;;5038045;28;20040;-68
2023/06/23 03:16:54;;;;;;;15.60;8.70;;;17.50;99.90;;;;;;5038396;28;20029;-68
2023/06/23 03:19:28;;;;;;;17.83;7.75;;;17.50;99.90;;;;;;5038765;28;20032;-68
2023/06/23 03:22:08;;;;;;;12.82;8.43;;;17.50;99.90;;;;;;5037992;28;20080;-68
2023/06/23 03:24:38;;;;;;;9.68;7.90;;;17.50;99.90;;;;;;5038167;28;20501;-68
2023/06/23 03:27:08;;;;;;;15.10;8.10;;;17.50;99.90;;;;;;5037855;28;20028;-68
2023/06/23 03:29:47;;;;;;;15.27;8.45;;;17.50;99.90;;;;;;5038892;28;20091;-68
2023/06/23 03:32:18;;;;;;;9.20;7.80;;;17.60;99.90;;;;;;5038648;28;20052;-68
2023/06/23 03:34:54;;;;;;;13.82;8.38;;;17.60;99.90;;;;;;5038396;28;20413;-68
2023/06/23 03:37:22;;;;;;;16.02;9.35;;;17.60;99.90;;;;;;5037826;28;20113;-68
2023/06/23 03:39:53;;;;;;;12.13;8.52;;;17.60;99.90;;;;;;5038326;28;20053;-68
2023/06/23 03:42:19;;;;;;;16.02;8.73;;;17.60;99.90;;;;;;5037696;28;20056;-68
2023/06/23 03:44:49;;;;;;;15.45;9.23;;;17.60;99.90;;;;;;5038393;28;20018;-68
2023/06/23 03:47:21;;;;;;;12.20;8.25;;;17.70;99.90;;;;;;5037793;28;20051;-68
2023/06/23 03:49:54;;;;;;;13.10;8.20;;;17.60;99.90;;;;;;5038162;28;20445;-68
2023/06/23 03:52:22;;;;;;;13.02;8.27;;;17.70;99.90;;;;;;5034090;28;20454;-68
2023/06/23 03:54:52;;;;;;;11.90;9.02;;;17.70;99.90;;;;;;5037637;28;20037;-68
2023/06/23 03:57:20;;;;;;;17.02;10.55;;;17.60;99.90;;;;;;5036453;28;20030;-68
2023/06/23 03:59:49;;;;;;;15.15;7.47;;;17.60;99.90;;;;;;5037806;28;20036;-68
2023/06/23 04:02:17;;;;;;;14.80;9.13;;;17.60;99.90;;;;;;5037314;28;20049;-68
2023/06/23 04:04:45;;;;;;;11.38;7.63;;;17.60;99.90;;;;;;5037327;28;20026;-68
2023/06/23 04:07:11;;;;;;;16.20;8.15;;;17.60;99.90;;;;;;5036501;28;20032;-68
2023/06/23 04:09:43;;;;;;;16.30;8.65;;;17.50;99.90;;;;;;5037894;28;20029;-68
2023/06/23 04:12:12;;;;;;;12.60;8.23;;;17.40;99.90;;;;;;5037010;28;20025;-68
2023/06/23 04:14:39;;;;;;;13.73;8.45;;;17.40;99.90;;;;;;5038115;28;20112;-68
2023/06/23 04:17:08;;;;;;;12.15;7.85;;;17.40;99.90;;;;;;5036725;28;20032;-68
2023/06/23 04:19:35;;;;;;;14.18;9.02;;;17.40;99.90;;;;;;5036409;28;20532;-68
2023/06/23 04:22:05;;;;;;;17.02;9.00;;;17.30;99.90;;;;;;5036810;28;20029;-68
2023/06/23 04:24:33;;;;;;;11.25;8.65;;;17.20;99.90;;;;;;5036564;28;20017;-68
2023/06/23 04:27:01;;;;;;;11.25;7.95;;;17.20;99.90;;;;;;5037818;28;20153;-68
2023/06/23 04:29:28;;;;;;;10.30;8.10;;;17.20;99.90;;;;;;5035908;28;20036;-68
2023/06/23 04:31:55;;;;;;;16.17;8.48;;;17.20;99.90;;;;;;5037057;28;20112;-68
2023/06/23 04:34:21;;;;;;;12.13;8.23;;;17.20;99.90;;;;;;5035475;28;20116;-69
2023/06/23 04:37:07;;;;;;;16.20;8.93;;;17.20;99.90;;;;;;5036688;28;20028;-68
2023/06/23 04:39:49;;;;;;;15.25;8.55;;;17.20;99.90;;;;;;5037393;28;20398;-68
2023/06/23 04:42:17;;;;;;;17.33;9.43;;;17.20;99.90;;;;;;5035506;28;20104;-68
2023/06/23 04:44:50;;;;;;;20.35;10.05;;;17.20;99.90;;;;;;5036577;28;20075;-68
2023/06/23 04:47:20;;;;;;;12.50;8.38;;;17.20;99.90;;;;;;5037355;28;20051;-68
2023/06/23 04:49:52;;;;;;;14.60;9.55;;;17.30;99.90;;;;;;5035632;28;20462;-68
2023/06/23 04:52:20;;;;;;;15.23;9.10;;;17.40;99.90;;;;;;5037093;28;20030;-68
2023/06/23 04:54:49;;;;;;;20.08;9.40;;;17.40;99.90;;;;;;5026502;28;20156;-68
2023/06/23 04:57:19;;;;;;;12.55;8.18;;;17.40;99.90;;;;;;5036676;28;20032;-68
2023/06/23 04:59:53;;;;;;;11.15;8.30;;;17.50;99.90;;;;;;5037198;28;20033;-68
2023/06/23 05:02:20;;;;;;;13.98;8.25;;;17.50;99.90;;;;;;5036772;28;20320;-68
2023/06/23 05:04:48;;;;;;;19.75;8.23;;;17.60;99.90;;;;;;5036712;28;20052;-68
2023/06/23 05:07:16;;;;;;;10.57;7.78;;;17.60;99.90;;;;;;5036033;28;20593;-68
2023/06/23 05:09:46;;;;;;;15.55;8.45;;;17.70;99.90;;;;;;5036559;28;20033;-68
2023/06/23 05:12:15;;;;;;;15.27;9.27;;;17.70;99.90;;;;;;5036781;28;20021;-68
2023/06/23 05:14:42;;;;;;;17.15;9.43;;;17.70;99.90;;;;;;5035272;28;20036;-68
2023/06/23 05:17:11;;;;;;;15.52;8.57;;;17.80;99.90;;;;;;5036613;28;20067;-68
2023/06/23 05:19:39;;;;;;;18.08;9.25;;;17.80;99.90;;;;;;5036184;28;20044;-68
2023/06/23 05:22:10;;;;;;;13.75;8.27;;;17.90;99.90;;;;;;5029945;28;20037;-68
2023/06/23 05:24:43;;;;;;;11.38;7.97;;;17.90;99.90;;;;;;5019118;28;20025;-68
2023/06/23 05:27:10;;;;;;;9.65;7.60;;;17.90;99.90;;;;;;5027596;28;20075;-69
2023/06/23 05:29:39;;;;;;;13.55;8.52;;;17.90;99.90;;;;;;5036422;28;20018;-68
2023/06/23 05:32:17;;;;;;;12.57;8.53;;;17.90;99.90;;;;;;5036387;28;20013;-68
2023/06/23 05:34:45;;;;;;;13.40;8.65;;;18.00;99.90;;;;;;5036131;28;20036;-69
2023/06/23 05:37:12;;;;;;;18.83;8.63;;;18.00;99.90;;;;;;5036699;28;20500;-68
2023/06/23 05:39:39;;;;;;;13.25;9.07;;;18.10;99.90;;;;;;5036183;28;20485;-69
2023/06/23 05:42:06;;;;;;;21.00;8.60;;;18.10;99.90;;;;;;5036297;28;20477;-68
2023/06/23 05:44:32;;;;;;;13.82;8.40;;;18.20;99.90;;;;;;5036225;28;20077;-68
2023/06/23 05:47:01;;;;;;;13.43;8.45;;;18.20;99.90;;;;;;5036705;28;20013;-69
2023/06/23 05:49:29;;;;;;;14.27;8.18;;;18.20;99.90;;;;;;5036003;28;20018;-69
2023/06/23 05:51:59;;;;;;;16.63;8.95;;;18.20;99.90;;;;;;5036373;28;20426;-69
2023/06/23 05:54:27;;;;;;;12.73;8.82;;;18.20;99.90;;;;;;5038375;28;20045;-68
2023/06/23 05:56:59;;;;;;;18.75;9.05;;;18.30;99.90;;;;;;5037879;28;20091;-68
2023/06/23 05:59:32;;;;;;;16.65;10.20;;;18.40;99.90;;;;;;5034694;28;20021;-68
2023/06/23 06:01:59;;;;;;;18.30;9.50;;;18.50;99.90;;;;;;5039854;28;20024;-69
2023/06/23 06:04:29;;;;;;;15.93;10.85;;;18.60;99.90;;;;;;5039903;28;20447;-68
2023/06/23 06:06:57;;;;;;;15.17;9.97;;;18.70;99.90;;;;;;5039877;28;20071;-69
2023/06/23 06:09:26;;;;;;;18.75;10.27;;;18.70;99.90;;;;;;5038524;28;20283;-68
2023/06/23 06:11:53;;;;;;;18.17;10.33;;;18.70;99.90;;;;;;5039496;28;20056;-68
2023/06/23 06:14:22;;;;;;;22.63;10.45;;;18.70;99.90;;;;;;5037882;28;20018;-68
2023/06/23 06:16:50;;;;;;;16.58;11.18;;;18.70;99.90;;;;;;5039895;28;20025;-68
2023/06/23 06:19:20;;;;;;;17.48;9.77;;;18.70;99.90;;;;;;5030535;28;20025;-68
2023/06/23 06:21:48;;;;;;;16.38;10.95;;;18.70;99.90;;;;;;5036606;28;20033;-68
2023/06/23 06:24:15;;;;;;;18.15;10.18;;;18.80;99.90;;;;;;5039840;28;20071;-68
2023/06/23 06:26:43;;;;;;;18.90;10.82;;;18.80;99.90;;;;;;5039330;28;20049;-68
2023/06/23 06:29:11;;;;;;;19.23;10.70;;;18.70;99.90;;;;;;5038342;28;20425;-68
2023/06/23 06:31:38;;;;;;;16.25;10.50;;;18.60;99.90;;;;;;5039428;28;20049;-68
2023/06/23 06:34:06;;;;;;;16.80;10.30;;;18.60;99.90;;;;;;5039358;28;20176;-68
2023/06/23 06:36:36;;;;;;;15.77;10.93;;;18.60;99.90;;;;;;5037782;28;20040;-68
2023/06/23 06:39:03;;;;;;;16.73;10.73;;;18.70;99.90;;;;;;5038437;28;20093;-68
2023/06/23 06:41:34;;;;;;;17.58;9.70;;;18.70;99.90;;;;;;5039069;28;20029;-69
2023/06/23 06:44:02;;;;;;;14.32;10.65;;;18.70;99.90;;;;;;5026669;28;20076;-68
2023/06/23 06:46:29;;;;;;;15.93;11.55;;;18.80;99.90;;;;;;5033337;28;20032;-68
2023/06/23 06:48:59;;;;;;;15.13;10.82;;;18.80;99.90;;;;;;5036538;28;20033;-69
2023/06/23 06:51:27;;;;;;;16.47;11.40;;;18.80;99.90;;;;;;5037909;28;20037;-68
2023/06/23 06:53:53;;;;;;;16.27;10.68;;;18.90;99.90;;;;;;5036971;28;20022;-68
2023/06/23 06:56:20;;;;;;;18.35;11.50;;;19.00;99.90;;;;;;5037734;28;20029;-68
2023/06/23 06:58:46;;;;;;;15.68;10.80;;;19.10;99.90;;;;;;5037624;28;20025;-68
2023/06/23 07:01:13;;;;;;;16.92;11.38;;;19.10;99.90;;;;;;5035728;28;20117;-68
2023/06/23 07:03:41;;;;;;;14.80;9.73;;;19.30;99.90;;;;;;5037115;28;20021;-68
2023/06/23 07:06:07;;;;;;;17.80;11.63;;;19.50;99.90;;;;;;5036132;28;20131;-67
2023/06/23 07:08:33;;;;;;;17.77;10.75;;;19.50;99.90;;;;;;5037830;28;20112;-67
2023/06/23 07:10:59;;;;;;;19.60;10.70;;;19.60;99.90;;;;;;5035975;28;20029;-68
2023/06/23 07:13:24;;;;;;;17.70;10.68;;;19.70;99.90;;;;;;5037231;28;20025;-68
2023/06/23 07:15:50;;;;;;;16.98;11.68;;;19.80;99.90;;;;;;5035634;28;20033;-68
2023/06/23 07:18:15;;;;;;;14.73;11.57;;;19.90;99.90;;;;;;5037348;28;20028;-67
2023/06/23 07:20:41;;;;;;;13.65;10.55;;;19.90;99.90;;;;;;5035777;28;20517;-67
2023/06/23 07:23:08;;;;;;;16.10;11.48;;;20.00;99.90;;;;;;5037553;28;20037;-68
2023/06/23 07:25:34;;;;;;;18.80;10.77;;;19.90;99.90;;;;;;5036634;28;20018;-69
2023/06/23 07:28:00;;;;;;;14.00;9.45;;;20.00;99.90;;;;;;5034592;28;20038;-67
2023/06/23 07:30:25;;;;;;;15.13;9.93;;;20.10;99.90;;;;;;5037735;28;20056;-67
2023/06/23 07:32:52;;;;;;;17.83;9.65;;;20.30;99.90;;;;;;5037370;28;20029;-68
2023/06/23 07:35:17;;;;;;;13.52;9.55;;;20.30;99.90;;;;;;5032584;28;20108;-68
2023/06/23 07:37:43;;;;;;;15.05;9.02;;;20.40;99.90;;;;;;5037176;28;20052;-68
2023/06/23 07:40:09;;;;;;;17.83;9.23;;;20.50;99.90;;;;;;5036432;28;20022;-69
2023/06/23 07:42:35;;;;;;;14.60;9.13;;;20.50;99.90;;;;;;5035416;28;20033;-68
2023/06/23 07:45:01;;;;;;;20.23;10.30;;;20.30;99.90;;;;;;5036014;28;20473;-68
2023/06/23 07:47:27;;;;;;;14.77;8.57;;;20.20;99.90;;;;;;5035647;28;20033;-67
2023/06/23 07:49:53;;;;;;;16.88;9.50;;;20.30;99.90;;;;;;5037045;28;20339;-68
2023/06/23 07:52:18;;;;;;;15.80;9.50;;;20.40;99.90;;;;;;5036955;28;20434;-68
2023/06/23 07:54:44;;;;;;;18.83;10.00;;;20.40;99.90;;;;;;5036093;28;20037;-68
2023/06/23 07:57:11;;;;;;;13.95;9.30;;;20.60;99.90;;;;;;5032809;28;20025;-68
2023/06/23 07:59:37;;;;;;;12.18;8.55;;;20.70;99.90;;;;;;5035226;28;20037;-68
2023/06/23 08:02:03;;;;;;;12.35;9.13;;;20.60;99.90;;;;;;5033825;28;20078;-68
2023/06/23 08:04:29;;;;;;;13.10;8.68;;;20.60;99.90;;;;;;5036004;28;20052;-68
2023/06/23 08:06:55;;;;;;;13.75;8.88;;;20.60;99.90;;;;;;5034637;28;20022;-68
2023/06/23 08:09:20;;;;;;;11.15;9.00;;;20.90;99.90;;;;;;5034222;28;20203;-68
2023/06/23 08:11:46;;;;;;;12.95;8.48;;;21.20;99.90;;;;;;5034732;28;20039;-68
2023/06/23 08:14:12;;;;;;;13.05;7.90;;;21.50;99.90;;;;;;5036508;28;20037;-68
2023/06/23 08:16:38;;;;;;;11.23;8.60;;;21.40;99.90;;;;;;5031688;28;20057;-68
2023/06/23 08:19:03;;;;;;;11.73;7.93;;;21.10;99.90;;;;;;5034994;28;20049;-68
2023/06/23 08:21:30;;;;;;;12.07;8.30;;;21.10;99.90;;;;;;5033550;28;20626;-68
2023/06/23 08:23:56;;;;;;;9.40;7.40;;;21.30;99.90;;;;;;5036260;28;20024;-68
2023/06/23 08:26:23;;;;;;;11.88;7.82;;;21.60;99.90;;;;;;5035589;28;20029;-68
2023/06/23 08:28:48;;;;;;;11.75;7.97;;;21.60;99.90;;;;;;5032610;28;20079;-68
2023/06/23 08:31:14;;;;;;;11.48;8.18;;;21.30;99.90;;;;;;5036086;28;20030;-68
2023/06/23 08:33:40;;;;;;;13.73;7.70;;;21.10;99.90;;;;;;5035810;28;20022;-68
2023/06/23 08:36:06;;;;;;;10.80;7.75;;;21.10;99.90;;;;;;5036317;28;20029;-68
2023/06/23 08:38:32;;;;;;;12.90;7.65;;;21.20;99.90;;;;;;5035999;28;20056;-69
2023/06/23 08:40:58;;;;;;;11.60;7.50;;;21.40;99.90;;;;;;5035771;28;20064;-69
2023/06/23 08:43:27;;;;;;;10.93;7.15;;;21.30;99.90;;;;;;5035756;28;20104;-68
2023/06/23 08:45:58;;;;;;;15.23;6.65;;;21.40;99.90;;;;;;5035497;28;20171;-68
2023/06/23 08:48:26;;;;;;;12.50;8.00;;;21.50;99.90;;;;;;5035604;28;20053;-68
2023/06/23 08:51:01;;;;;;;13.55;8.50;;;21.40;99.90;;;;;;5035891;28;20022;-69
2023/06/23 08:53:27;;;;;;;11.15;7.32;;;21.50;99.90;;;;;;5032817;28;20029;-68
2023/06/23 08:55:55;;;;;;;10.60;6.78;;;21.60;99.90;;;;;;5034633;28;20413;-68
2023/06/23 08:58:22;;;;;;;12.07;7.95;;;21.60;99.90;;;;;;5033743;28;20108;-68
2023/06/23 09:00:52;;;;;;;11.15;7.22;;;21.60;99.90;;;;;;5036093;28;20017;-69
2023/06/23 09:03:25;;;;;;;10.23;6.47;;;21.60;99.90;;;;;;5035301;28;20017;-69
2023/06/23 09:05:51;;;;;;;10.07;7.20;;;21.60;99.90;;;;;;5034622;28;20025;-68
2023/06/23 09:08:16;;;;;;;10.25;7.68;;;21.70;99.90;;;;;;5035891;28;20514;-69
2023/06/23 09:10:42;;;;;;;8.38;6.65;;;21.70;99.90;;;;;;5032593;28;20030;-68
2023/06/23 09:13:41;;;;;;;13.13;6.85;;;21.80;99.90;;;;;;5033215;28;20020;-68
2023/06/23 09:16:08;;;;;;;11.38;7.15;;;21.80;99.90;;;;;;5023553;28;20057;-68
2023/06/23 09:18:38;;;;;;;9.48;6.25;;;21.90;99.90;;;;;;5035993;28;20124;-71
2023/06/23 09:21:05;;;;;;;8.13;6.10;;;22.00;99.90;;;;;;5034386;28;20592;-69
2023/06/23 09:23:31;;;;;;;10.65;6.43;;;22.00;99.90;;;;;;5035756;28;20025;-69
2023/06/23 09:25:57;;;;;;;8.75;6.70;;;22.00;99.90;;;;;;5034238;28;20034;-68
2023/06/23 09:28:31;;;;;;;9.15;6.85;;;22.20;99.90;;;;;;5035635;28;20029;-69
2023/06/23 09:31:13;;;;;;;10.98;6.95;;;22.20;99.90;;;;;;5035312;28;20428;-68
2023/06/23 09:33:51;;;;;;;7.07;5.38;;;22.10;99.90;;;;;;5035296;28;20028;-69
2023/06/23 09:36:17;;;;;;;10.18;6.88;;;22.10;99.90;;;;;;5034531;28;20035;-70
2023/06/23 09:38:44;;;;;;;8.57;6.30;;;22.10;99.90;;;;;;5035693;28;20026;-70
2023/06/23 09:41:11;;;;;;;10.52;5.65;;;22.30;99.90;;;;;;5035463;28;20049;-70
2023/06/23 09:43:40;;;;;;;7.75;6.10;;;22.30;99.90;;;;;;5035795;28;20040;-70
2023/06/23 09:46:08;;;;;;;11.35;6.43;;;22.50;99.90;;;;;;5035162;28;20013;-71
2023/06/23 09:48:34;;;;;;;7.72;5.65;;;22.60;99.90;;;;;;5033763;28;20047;-69
2023/06/23 09:51:01;;;;;;;11.35;6.25;;;22.70;99.90;;;;;;5033633;28;20085;-69
2023/06/23 09:53:33;;;;;;;8.18;5.63;;;22.80;99.90;;;;;;5033563;28;20033;-69
2023/06/23 09:55:59;;;;;;;9.13;6.82;;;22.90;99.90;;;;;;5027769;28;20018;-70
2023/06/23 09:58:31;;;;;;;7.00;5.15;;;22.80;99.90;;;;;;5036165;28;20021;-70
2023/06/23 10:01:06;;;;;;;13.98;5.57;;;22.80;99.90;;;;;;5035511;28;20063;-70
2023/06/23 10:03:32;;;;;;;8.50;5.57;;;22.80;99.90;;;;;;5035899;28;20026;-70
2023/06/23 10:05:59;;;;;;;7.45;5.95;;;23.00;99.90;;;;;;5036131;28;20028;-70
2023/06/23 10:08:26;;;;;;;8.18;6.07;;;23.00;99.90;;;;;;5034728;28;20045;-70
2023/06/23 10:10:52;;;;;;;11.73;7.07;;;23.30;99.90;;;;;;5036184;28;20025;-69
2023/06/23 10:13:18;;;;;;;9.10;5.40;;;23.60;99.90;;;;;;5033271;28;20077;-70
2023/06/23 10:15:44;;;;;;;9.27;6.07;;;23.60;99.90;;;;;;5036292;28;20524;-70
2023/06/23 10:18:13;;;;;;;8.75;5.82;;;23.40;99.90;;;;;;5035992;28;20048;-70
2023/06/23 10:20:39;;;;;;;6.70;4.97;;;23.50;99.90;;;;;;5036137;28;20049;-70
2023/06/23 10:23:06;;;;;;;9.43;4.82;;;23.70;99.90;;;;;;5036129;28;20036;-69
2023/06/23 10:25:35;;;;;;;6.85;5.60;;;23.90;99.90;;;;;;5036262;28;20029;-70
2023/06/23 10:28:07;;;;;;;10.50;6.05;;;24.10;99.90;;;;;;5036109;28;20028;-70
2023/06/23 10:30:33;;;;;;;8.27;5.60;;;24.30;99.90;;;;;;5036394;28;20056;-70
2023/06/23 10:33:02;;;;;;;7.82;5.80;;;24.10;99.90;;;;;;5035859;28;20452;-70
2023/06/23 10:35:28;;;;;;;10.35;5.18;;;23.80;99.90;;;;;;5036417;28;20022;-69
2023/06/23 10:38:02;;;;;;;6.70;5.22;;;23.80;99.90;;;;;;5035985;28;20033;-69
2023/06/23 10:40:30;;;;;;;7.93;5.43;;;23.90;99.90;;;;;;5036675;28;20030;-70
2023/06/23 10:42:56;;;;;;;6.45;4.50;;;24.10;99.90;;;;;;5039815;28;20517;-69
2023/06/23 10:45:22;;;;;;;11.00;6.00;;;24.30;99.90;;;;;;5039595;28;20025;-70
2023/06/23 10:47:48;;;;;;;7.25;5.18;;;24.40;99.90;;;;;;5039472;28;20067;-70
2023/06/23 10:50:14;;;;;;;8.82;5.13;;;24.50;99.90;;;;;;5039502;28;20501;-70
2023/06/23 10:52:42;;;;;;;6.90;4.57;;;24.40;99.90;;;;;;5039772;28;20022;-70
2023/06/23 10:55:42;;;;;;;6.55;5.18;;;24.60;99.90;;;;;;5039670;28;20060;-70
2023/06/23 10:58:10;;;;;;;6.63;5.53;;;24.70;99.90;;;;;;5039737;28;20022;-70
2023/06/23 11:00:35;;;;;;;7.95;4.05;;;24.80;99.90;;;;;;5039733;28;20029;-70
2023/06/23 11:03:01;;;;;;;9.15;4.32;;;25.00;99.90;;;;;;5039280;28;20041;-69
2023/06/23 11:05:27;;;;;;;7.03;4.70;;;25.20;99.90;;;;;;5039347;28;20026;-70
2023/06/23 11:08:02;;;;;;;6.82;3.90;;;25.30;99.90;;;;;;5039363;28;20152;-70
2023/06/23 11:10:47;;;;;;;8.10;4.32;;;25.20;99.90;;;;;;5038036;28;20494;-70
2023/06/23 11:13:13;;;;;;;6.85;4.13;;;25.20;99.90;;;;;;5039356;28;20034;-70
2023/06/23 11:15:40;;;;;;;7.00;4.75;;;25.20;99.90;;;;;;5039376;28;20025;-70
2023/06/23 11:18:06;;;;;;;7.93;3.63;;;25.10;99.90;;;;;;5038936;28;20032;-70
2023/06/23 11:20:35;;;;;;;5.57;4.22;;;25.00;99.90;;;;;;5039060;28;20468;-70
2023/06/23 11:23:13;;;;;;;6.53;3.63;;;24.90;99.90;;;;;;5038928;28;20056;-70
2023/06/23 11:25:50;;;;;;;6.63;4.78;;;25.00;99.90;;;;;;5039096;28;20116;-70
2023/06/23 11:28:36;;;;;;;6.00;4.35;;;25.20;99.90;;;;;;5039062;28;20104;-69
2023/06/23 11:31:12;;;;;;;6.18;4.07;;;25.30;99.90;;;;;;5037867;28;20010;-70
2023/06/23 11:33:58;;;;;;;5.57;4.20;;;25.30;99.90;;;;;;5037678;28;20033;-70
2023/06/23 11:36:26;;;;;;;7.05;4.88;;;25.40;99.90;;;;;;5038861;28;20024;-70
2023/06/23 11:38:53;;;;;;;6.47;4.97;;;25.60;99.90;;;;;;5035639;28;20018;-70
2023/06/23 11:41:29;;;;;;;6.03;4.53;;;25.80;99.90;;;;;;5036029;28;20022;-70
2023/06/23 11:44:00;;;;;;;7.45;4.22;;;26.00;99.90;;;;;;5038766;28;20071;-70
2023/06/23 11:46:27;;;;;;;5.25;3.78;;;26.20;99.90;;;;;;5038719;28;20025;-70
2023/06/23 11:48:53;;;;;;;5.43;3.90;;;26.30;99.90;;;;;;5038347;28;20026;-70
2023/06/23 11:51:21;;;;;;;8.07;3.90;;;26.20;99.90;;;;;;5038379;28;20021;-70
2023/06/23 11:53:49;;;;;;;6.25;4.03;;;26.10;99.90;;;;;;5038594;28;20021;-70
2023/06/23 11:56:17;;;;;;;5.78;3.92;;;26.00;99.90;;;;;;5038592;28;20018;-70
2023/06/23 11:58:49;;;;;;;6.25;4.10;;;26.00;99.90;;;;;;5032873;28;20029;-70
2023/06/23 12:01:15;;;;;;;4.20;3.50;;;26.30;99.90;;;;;;5038718;28;20040;-70
2023/06/23 12:03:49;;;;;;;7.15;4.80;;;26.40;99.90;;;;;;5036755;28;20086;-70
2023/06/23 12:06:18;;;;;;;5.10;3.83;;;26.50;99.90;;;;;;5038356;28;20152;-70
2023/06/23 12:08:49;;;;;;;5.68;4.20;;;26.50;99.90;;;;;;5038473;28;20018;-70
2023/06/23 12:11:18;;;;;;;5.47;4.45;;;26.70;99.90;;;;;;5036859;28;20112;-70
2023/06/23 12:13:50;;;;;;;4.32;3.42;;;26.60;99.90;;;;;;5038319;28;20489;-70
2023/06/23 12:16:16;;;;;;;6.22;3.65;;;26.70;99.90;;;;;;5037952;28;20087;-71
2023/06/23 12:18:45;;;;;;;7.15;3.92;;;26.80;99.90;;;;;;5037833;28;20401;-68
2023/06/23 12:21:11;;;;;;;4.72;3.67;;;26.60;99.90;;;;;;5037678;28;20041;-68
2023/06/23 12:23:37;;;;;;;5.68;4.10;;;26.50;99.90;;;;;;5036569;28;20052;-68
2023/06/23 12:26:05;;;;;;;4.80;3.85;;;26.30;99.90;;;;;;5038210;28;20063;-68
2023/06/23 12:28:31;;;;;;;5.70;3.70;;;26.20;99.90;;;;;;5037754;28;20028;-68
2023/06/23 12:30:57;;;;;;;6.18;3.80;;;26.30;99.90;;;;;;5037959;28;20053;-68
2023/06/23 12:33:29;;;;;;;6.03;4.00;;;26.30;99.90;;;;;;5037329;28;20021;-71
2023/06/23 12:35:58;;;;;;;5.30;4.40;;;26.40;99.90;;;;;;5036963;28;20148;-68
2023/06/23 12:38:24;;;;;;;4.80;2.97;;;26.80;99.90;;;;;;5037648;28;20079;-70
2023/06/23 12:40:51;;;;;;;5.78;3.83;;;27.00;99.90;;;;;;5037640;28;20025;-68
2023/06/23 12:43:20;;;;;;;9.13;4.18;;;26.70;99.90;;;;;;5028251;28;20030;-69
2023/06/23 12:45:49;;;;;;;4.90;3.80;;;26.60;99.90;;;;;;5037758;28;20024;-69
2023/06/23 12:48:19;;;;;;;4.07;2.90;;;26.70;99.90;;;;;;5037139;28;20017;-69
2023/06/23 12:50:45;;;;;;;5.50;3.83;;;26.90;99.90;;;;;;5031818;28;20021;-71